Time;durP1;ratioP1;P1;durP2;ratioP2;P2;SDS_P1;SDS_P2;PMS_P1;PMS_P2;Temp;Humidity;BMP_temperature;BMP_pressure;BME280_temperature;BME280_humidity;BME280_pressure;Samples;Min_cycle;Max_cycle;Signal;HPM_P1;HPM_P2
2023/08/31 00:00:15;;;;;;;18.97;15.90;;;12.90;99.90;;;;;;5074484;28;20526;-60
2023/08/31 00:02:43;;;;;;;16.50;13.60;;;12.90;99.90;;;;;;5074194;28;20470;-60
2023/08/31 00:05:10;;;;;;;16.03;14.30;;;12.80;99.90;;;;;;5076697;28;20447;-60
2023/08/31 00:07:37;;;;;;;22.77;14.60;;;12.80;99.90;;;;;;5076646;28;20443;-60
2023/08/31 00:10:09;;;;;;;21.03;15.60;;;12.70;99.90;;;;;;5075105;28;20474;-60
2023/08/31 00:12:37;;;;;;;16.40;14.23;;;12.70;99.90;;;;;;5074001;28;20463;-60
2023/08/31 00:15:04;;;;;;;20.30;14.23;;;12.70;99.90;;;;;;5073773;28;20450;-60
2023/08/31 00:17:31;;;;;;;15.93;13.40;;;12.60;99.90;;;;;;5073689;28;20517;-59
2023/08/31 00:19:57;;;;;;;16.20;13.90;;;12.60;99.90;;;;;;5073541;28;20443;-60
2023/08/31 00:22:24;;;;;;;17.10;14.20;;;12.60;99.90;;;;;;5073458;28;20466;-59
2023/08/31 00:24:52;;;;;;;17.50;14.97;;;12.60;99.90;;;;;;5074016;28;20450;-59
2023/08/31 00:27:21;;;;;;;15.20;13.70;;;12.60;99.90;;;;;;5076159;28;20435;-60
2023/08/31 00:29:50;;;;;;;17.00;13.13;;;12.60;99.90;;;;;;5079897;28;20439;-60
2023/08/31 00:32:17;;;;;;;15.40;12.47;;;12.50;99.90;;;;;;5079588;28;20482;-60
2023/08/31 00:34:44;;;;;;;17.73;14.43;;;12.50;99.90;;;;;;5080584;28;20970;-59
2023/08/31 00:37:10;;;;;;;15.27;13.43;;;12.50;99.90;;;;;;5080806;28;20478;-60
2023/08/31 00:39:37;;;;;;;16.60;13.53;;;12.50;99.90;;;;;;5081154;28;20445;-59
2023/08/31 00:42:04;;;;;;;15.30;13.70;;;12.50;99.90;;;;;;5079108;28;20462;-60
2023/08/31 00:44:32;;;;;;;14.90;13.03;;;12.40;99.90;;;;;;5077372;28;20443;-60
2023/08/31 00:46:59;;;;;;;15.97;12.73;;;12.40;99.90;;;;;;5077190;28;20450;-60
2023/08/31 00:49:26;;;;;;;14.83;13.23;;;12.40;99.90;;;;;;5077255;28;20442;-60
2023/08/31 00:51:53;;;;;;;15.63;12.50;;;12.40;99.90;;;;;;5076462;28;20973;-59
2023/08/31 00:54:20;;;;;;;19.40;13.13;;;12.30;99.90;;;;;;5077061;28;20455;-60
2023/08/31 00:56:52;;;;;;;15.57;12.10;;;12.30;99.90;;;;;;5076486;28;20475;-59
2023/08/31 00:59:19;;;;;;;13.67;12.20;;;12.30;99.90;;;;;;5076893;28;20936;-60
2023/08/31 01:01:57;;;;;;;17.67;12.40;;;12.30;99.90;;;;;;5076066;28;20482;-60
2023/08/31 01:04:32;;;;;;;14.00;11.70;;;12.30;99.90;;;;;;5077179;28;20430;-60
2023/08/31 01:07:06;;;;;;;13.57;10.30;;;12.30;99.90;;;;;;5076681;28;20419;-60
2023/08/31 01:09:40;;;;;;;14.90;11.00;;;12.30;99.90;;;;;;5076570;28;20496;-60
2023/08/31 01:12:11;;;;;;;16.77;10.77;;;12.30;99.90;;;;;;5076512;28;20458;-60
2023/08/31 01:14:43;;;;;;;13.50;11.43;;;12.20;99.90;;;;;;5076730;28;20423;-60
2023/08/31 01:17:13;;;;;;;13.83;12.43;;;12.20;99.90;;;;;;5076462;28;20462;-59
2023/08/31 01:19:49;;;;;;;16.17;11.70;;;12.20;99.90;;;;;;5076515;28;20440;-60
2023/08/31 01:22:25;;;;;;;18.23;11.20;;;12.20;99.90;;;;;;5075993;28;20469;-60
2023/08/31 01:24:54;;;;;;;13.57;11.80;;;12.20;99.90;;;;;;5076081;28;20480;-60
2023/08/31 01:27:22;;;;;;;15.60;12.33;;;12.10;99.90;;;;;;5076014;28;20443;-60
2023/08/31 01:29:49;;;;;;;15.10;11.20;;;12.10;99.90;;;;;;5076037;28;20542;-60
2023/08/31 01:32:15;;;;;;;14.87;12.80;;;12.10;99.90;;;;;;5075657;28;20963;-59
2023/08/31 01:34:42;;;;;;;13.73;12.10;;;12.00;99.90;;;;;;5075879;28;20439;-60
2023/08/31 01:37:14;;;;;;;16.73;12.60;;;12.00;99.90;;;;;;5076039;28;20479;-60
2023/08/31 01:39:47;;;;;;;15.60;12.07;;;12.00;99.90;;;;;;5075016;28;20424;-60
2023/08/31 01:42:17;;;;;;;13.73;11.80;;;11.90;99.90;;;;;;5075869;28;21026;-60
2023/08/31 01:44:48;;;;;;;18.17;12.90;;;11.90;99.90;;;;;;5076392;28;20443;-60
2023/08/31 01:47:17;;;;;;;14.13;12.57;;;11.90;99.90;;;;;;5075659;28;20859;-60
2023/08/31 01:49:43;;;;;;;16.50;12.97;;;11.80;99.90;;;;;;5076746;28;20439;-60
2023/08/31 01:52:10;;;;;;;16.50;12.73;;;11.80;99.90;;;;;;5075904;28;20524;-60
2023/08/31 01:54:38;;;;;;;15.50;12.23;;;11.80;99.90;;;;;;5076162;28;20445;-60
2023/08/31 01:57:06;;;;;;;20.40;12.77;;;11.70;99.90;;;;;;5075851;28;20483;-60
2023/08/31 01:59:34;;;;;;;21.20;13.33;;;11.70;99.90;;;;;;5075725;28;20542;-60
2023/08/31 02:02:00;;;;;;;16.80;14.53;;;11.70;99.90;;;;;;5075454;28;20467;-61
2023/08/31 02:04:27;;;;;;;14.60;11.73;;;11.70;99.90;;;;;;5075344;28;20444;-60
2023/08/31 02:06:54;;;;;;;18.47;13.57;;;11.70;99.90;;;;;;5075343;28;20443;-60
2023/08/31 02:09:21;;;;;;;18.70;14.67;;;11.70;99.90;;;;;;5075316;28;20955;-60
2023/08/31 02:11:48;;;;;;;15.20;13.33;;;11.70;99.90;;;;;;5074908;28;20980;-60
2023/08/31 02:14:15;;;;;;;18.57;13.87;;;11.70;99.90;;;;;;5075595;28;20921;-60
2023/08/31 02:16:43;;;;;;;17.73;15.10;;;11.70;99.90;;;;;;5075165;28;20439;-60
2023/08/31 02:19:10;;;;;;;20.40;13.30;;;11.60;99.90;;;;;;5075699;28;20443;-60
2023/08/31 02:21:36;;;;;;;19.27;14.40;;;11.60;99.90;;;;;;5080032;28;20466;-60
2023/08/31 02:24:04;;;;;;;18.70;14.13;;;11.60;99.90;;;;;;5078990;28;20967;-60
2023/08/31 02:26:31;;;;;;;17.77;12.80;;;11.60;99.90;;;;;;5076521;28;20439;-60
2023/08/31 02:28:57;;;;;;;18.83;13.90;;;11.60;99.90;;;;;;5075023;28;20442;-60
2023/08/31 02:31:24;;;;;;;17.17;14.07;;;11.60;99.90;;;;;;5075154;28;20459;-60
2023/08/31 02:33:52;;;;;;;25.63;14.27;;;11.50;99.90;;;;;;5074670;28;20443;-60
2023/08/31 02:36:20;;;;;;;18.30;13.40;;;11.50;99.90;;;;;;5074654;28;20440;-60
2023/08/31 02:38:49;;;;;;;20.63;13.73;;;11.50;99.90;;;;;;5074481;28;20543;-60
2023/08/31 02:41:16;;;;;;;15.97;12.57;;;11.50;99.90;;;;;;5074441;28;20497;-60
2023/08/31 02:43:43;;;;;;;15.70;13.30;;;11.50;99.90;;;;;;5075242;28;20435;-60
2023/08/31 02:46:10;;;;;;;16.53;13.13;;;11.50;99.90;;;;;;5074861;28;20471;-61
2023/08/31 02:48:36;;;;;;;13.97;11.50;;;11.40;99.90;;;;;;5074313;28;20431;-60
2023/08/31 02:51:04;;;;;;;17.70;14.40;;;11.40;99.90;;;;;;5073373;28;20445;-60
2023/08/31 02:53:31;;;;;;;18.00;12.67;;;11.40;99.90;;;;;;5074342;28;20439;-60
2023/08/31 02:55:58;;;;;;;16.53;13.43;;;11.40;99.90;;;;;;5074279;28;20439;-60
2023/08/31 02:58:25;;;;;;;23.60;13.30;;;11.40;99.90;;;;;;5074537;28;20479;-60
2023/08/31 03:00:53;;;;;;;16.43;13.33;;;11.40;99.90;;;;;;5074026;28;20492;-60
2023/08/31 03:03:20;;;;;;;18.17;13.27;;;11.40;99.90;;;;;;5073914;28;20956;-60
2023/08/31 03:05:47;;;;;;;18.37;12.23;;;11.40;99.90;;;;;;5074138;28;20442;-60
2023/08/31 03:08:15;;;;;;;18.37;13.83;;;11.40;99.90;;;;;;5074078;28;20447;-60
2023/08/31 03:10:41;;;;;;;15.97;11.80;;;11.50;99.90;;;;;;5074190;28;20448;-60
2023/08/31 03:13:08;;;;;;;14.33;11.67;;;11.50;99.90;;;;;;5073739;28;20470;-60
2023/08/31 03:15:35;;;;;;;21.20;12.70;;;11.50;99.90;;;;;;5073960;28;20443;-60
2023/08/31 03:18:02;;;;;;;14.97;10.40;;;11.50;99.90;;;;;;5073712;28;20483;-60
2023/08/31 03:20:29;;;;;;;15.67;12.33;;;11.40;99.90;;;;;;5073361;28;20925;-60
2023/08/31 03:22:55;;;;;;;17.40;11.40;;;11.50;99.90;;;;;;5073026;28;20467;-60
2023/08/31 03:25:24;;;;;;;16.07;11.53;;;11.40;99.90;;;;;;5073795;28;20435;-59
2023/08/31 03:27:50;;;;;;;13.43;11.13;;;11.40;99.90;;;;;;5073406;28;20435;-60
2023/08/31 03:30:17;;;;;;;14.17;11.80;;;11.50;99.90;;;;;;5073661;28;20439;-60
2023/08/31 03:32:44;;;;;;;15.63;11.47;;;11.40;99.90;;;;;;5074304;28;20463;-60
2023/08/31 03:35:11;;;;;;;18.53;12.40;;;11.40;99.90;;;;;;5073180;28;20877;-60
2023/08/31 03:37:38;;;;;;;13.70;11.10;;;11.50;99.90;;;;;;5073369;28;20565;-60
2023/08/31 03:40:06;;;;;;;14.73;11.13;;;11.50;99.90;;;;;;5073536;28;20443;-60
2023/08/31 03:42:34;;;;;;;15.07;11.90;;;11.50;99.90;;;;;;5073733;28;20554;-60
2023/08/31 03:45:01;;;;;;;15.63;12.17;;;11.50;99.90;;;;;;5073866;28;20443;-60
2023/08/31 03:47:28;;;;;;;14.17;10.97;;;11.40;99.90;;;;;;5073654;28;20435;-60
2023/08/31 03:49:55;;;;;;;16.43;10.63;;;11.40;99.90;;;;;;5073419;28;20458;-59
2023/08/31 03:52:22;;;;;;;13.70;11.33;;;11.40;99.90;;;;;;5073264;28;20463;-60
2023/08/31 03:54:50;;;;;;;14.90;10.67;;;11.40;99.90;;;;;;5073934;28;20454;-60
2023/08/31 03:57:17;;;;;;;11.23;9.77;;;11.40;99.90;;;;;;5072912;28;20443;-60
2023/08/31 03:59:45;;;;;;;13.63;9.90;;;11.30;99.90;;;;;;5073238;28;20435;-60
2023/08/31 04:02:12;;;;;;;12.87;10.30;;;11.30;99.90;;;;;;5072820;28;20497;-60
2023/08/31 04:04:39;;;;;;;14.60;10.07;;;11.30;99.90;;;;;;5072900;28;20435;-59
2023/08/31 04:07:06;;;;;;;12.40;10.47;;;11.30;99.90;;;;;;5072902;28;20474;-59
2023/08/31 04:12:09;;;;;;;15.20;10.20;;;11.40;99.90;;;;;;5111681;27;20567;-60
2023/08/31 04:14:35;;;;;;;12.27;9.47;;;11.40;99.90;;;;;;5111861;28;20939;-60
2023/08/31 04:17:04;;;;;;;13.23;9.67;;;11.50;99.90;;;;;;5112117;28;20452;-61
2023/08/31 04:19:31;;;;;;;13.83;9.60;;;11.50;99.90;;;;;;5112307;28;20532;-59
2023/08/31 04:21:58;;;;;;;14.67;9.47;;;11.60;99.90;;;;;;5119081;28;20461;-61
2023/08/31 04:24:25;;;;;;;12.30;8.83;;;11.60;99.90;;;;;;5121901;28;20456;-61
2023/08/31 04:26:51;;;;;;;12.47;9.87;;;11.60;99.90;;;;;;5122241;28;20429;-61
2023/08/31 04:29:19;;;;;;;12.00;9.00;;;11.60;99.90;;;;;;5120895;28;20441;-61
2023/08/31 04:31:46;;;;;;;18.20;9.97;;;11.70;99.90;;;;;;5118824;28;20485;-60
2023/08/31 04:34:13;;;;;;;18.70;10.57;;;11.70;99.90;;;;;;5114890;28;20440;-60
2023/08/31 04:36:40;;;;;;;11.93;10.70;;;11.70;99.90;;;;;;5114295;28;20442;-61
2023/08/31 04:39:07;;;;;;;11.53;9.40;;;11.70;99.90;;;;;;5114111;28;20801;-61
2023/08/31 04:41:34;;;;;;;12.93;9.30;;;11.80;99.90;;;;;;5119263;28;20453;-60
2023/08/31 04:44:01;;;;;;;13.93;9.37;;;11.80;99.90;;;;;;5118847;28;20947;-61
2023/08/31 04:46:29;;;;;;;12.80;9.47;;;11.90;99.90;;;;;;5115572;28;20511;-61
2023/08/31 04:48:56;;;;;;;13.87;9.30;;;12.00;99.90;;;;;;5113412;28;20442;-59
2023/08/31 04:51:33;;;;;;;12.67;8.70;;;12.10;99.90;;;;;;5112294;28;20481;-61
2023/08/31 04:54:00;;;;;;;13.03;9.13;;;12.10;99.90;;;;;;5112049;28;20440;-61
2023/08/31 04:56:31;;;;;;;11.70;9.33;;;12.10;99.90;;;;;;5115071;28;20468;-60
2023/08/31 04:58:58;;;;;;;11.77;8.83;;;12.10;99.90;;;;;;5118709;28;20415;-59
2023/08/31 05:01:24;;;;;;;11.23;9.00;;;12.10;99.90;;;;;;5118701;28;20453;-60
2023/08/31 05:03:53;;;;;;;11.57;8.23;;;12.10;99.90;;;;;;5118373;28;20535;-60
2023/08/31 05:06:20;;;;;;;11.50;8.37;;;12.10;99.90;;;;;;5120177;28;20442;-60
2023/08/31 05:08:48;;;;;;;18.27;9.43;;;12.10;99.90;;;;;;5119055;28;20965;-60
2023/08/31 05:11:15;;;;;;;10.37;9.17;;;12.10;99.90;;;;;;5115637;28;20485;-60
2023/08/31 05:13:42;;;;;;;14.80;9.90;;;12.20;99.90;;;;;;5112844;28;20460;-60
2023/08/31 05:16:08;;;;;;;11.90;10.13;;;12.20;99.90;;;;;;5111857;28;20455;-58
2023/08/31 05:18:35;;;;;;;11.83;9.30;;;12.10;99.90;;;;;;5111198;28;20773;-61
2023/08/31 05:21:04;;;;;;;14.00;10.70;;;12.20;99.90;;;;;;5111948;28;20430;-60
2023/08/31 05:23:31;;;;;;;13.63;10.43;;;12.10;99.90;;;;;;5098500;28;20450;-61
2023/08/31 05:25:58;;;;;;;16.67;11.30;;;12.10;99.90;;;;;;5097196;28;20442;-60
2023/08/31 05:28:25;;;;;;;16.97;10.10;;;12.20;99.90;;;;;;5097704;28;20478;-60
2023/08/31 05:30:52;;;;;;;15.00;11.37;;;12.20;99.90;;;;;;5097451;28;20478;-61
2023/08/31 05:33:19;;;;;;;17.40;11.73;;;12.30;99.90;;;;;;5097070;28;20533;-60
2023/08/31 05:35:46;;;;;;;17.63;11.73;;;12.40;99.90;;;;;;5097900;28;20445;-60
2023/08/31 05:38:14;;;;;;;19.53;11.30;;;12.50;99.90;;;;;;5096490;28;20445;-61
2023/08/31 05:40:45;;;;;;;17.20;13.20;;;12.50;99.90;;;;;;5096624;28;20430;-60
2023/08/31 05:43:12;;;;;;;15.27;13.60;;;12.50;99.90;;;;;;5097076;28;20519;-60
2023/08/31 05:45:38;;;;;;;14.50;12.37;;;12.60;99.90;;;;;;5096388;28;20445;-60
2023/08/31 05:48:06;;;;;;;16.20;14.07;;;12.60;99.90;;;;;;5097863;28;20434;-61
2023/08/31 05:50:32;;;;;;;16.40;12.70;;;12.70;99.90;;;;;;5096751;28;20857;-61
2023/08/31 05:52:59;;;;;;;16.53;14.50;;;12.70;99.90;;;;;;5096927;28;20465;-60
2023/08/31 05:55:27;;;;;;;15.20;12.93;;;12.80;99.90;;;;;;5096841;28;20966;-61
2023/08/31 05:57:54;;;;;;;18.87;15.13;;;12.80;99.90;;;;;;5097139;28;20438;-60
2023/08/31 06:00:21;;;;;;;15.07;13.53;;;12.80;99.90;;;;;;5096592;28;20434;-60
2023/08/31 06:02:48;;;;;;;15.27;13.67;;;12.90;99.90;;;;;;5096847;28;20561;-61
2023/08/31 06:05:16;;;;;;;18.37;14.07;;;13.00;99.90;;;;;;5096386;28;20966;-60
2023/08/31 06:07:43;;;;;;;16.73;14.43;;;13.10;99.90;;;;;;5097752;28;20442;-60
2023/08/31 06:10:10;;;;;;;16.70;14.27;;;13.20;99.90;;;;;;5098393;28;20454;-61
2023/08/31 06:12:38;;;;;;;17.90;14.20;;;13.30;99.90;;;;;;5098073;28;20489;-60
2023/08/31 06:15:06;;;;;;;17.20;15.40;;;13.40;99.90;;;;;;5097393;28;20446;-62
2023/08/31 06:17:34;;;;;;;16.60;14.90;;;13.50;99.90;;;;;;5097002;28;20435;-60
2023/08/31 06:20:01;;;;;;;17.37;15.60;;;13.60;99.90;;;;;;5096501;28;20453;-60
2023/08/31 06:22:28;;;;;;;17.87;16.13;;;13.70;99.90;;;;;;5096407;28;20455;-59
2023/08/31 06:24:55;;;;;;;17.23;15.40;;;13.80;99.90;;;;;;5095944;28;20940;-60
2023/08/31 06:27:21;;;;;;;18.17;16.27;;;14.00;99.90;;;;;;5097101;28;20560;-60
2023/08/31 06:29:49;;;;;;;18.20;16.17;;;14.10;99.90;;;;;;5096277;28;20457;-60
2023/08/31 06:32:17;;;;;;;16.53;14.83;;;14.40;99.90;;;;;;5096890;28;20489;-60
2023/08/31 06:34:44;;;;;;;16.47;14.93;;;14.60;99.90;;;;;;5095220;28;20986;-59
2023/08/31 06:37:11;;;;;;;16.50;14.90;;;14.90;99.90;;;;;;5096217;28;20438;-61
2023/08/31 06:39:38;;;;;;;16.03;14.27;;;15.10;99.90;;;;;;5096186;28;20821;-61
2023/08/31 06:42:06;;;;;;;18.17;14.73;;;15.30;99.90;;;;;;5097908;28;20610;-61
2023/08/31 06:44:32;;;;;;;17.43;15.53;;;15.30;99.90;;;;;;5096829;28;20434;-60
2023/08/31 06:47:00;;;;;;;16.30;14.70;;;15.20;99.90;;;;;;5096467;28;20444;-58
2023/08/31 06:49:28;;;;;;;16.30;14.70;;;15.20;99.90;;;;;;5097427;28;20453;-60
2023/08/31 06:51:55;;;;;;;16.50;14.83;;;15.00;99.90;;;;;;5096497;28;20507;-61
2023/08/31 06:54:22;;;;;;;17.13;14.67;;;15.00;99.90;;;;;;5097637;28;20457;-61
2023/08/31 06:56:48;;;;;;;16.43;14.63;;;14.90;99.90;;;;;;5099368;28;20438;-61
2023/08/31 06:59:15;;;;;;;16.53;14.60;;;14.90;99.90;;;;;;5106664;28;20438;-61
2023/08/31 07:01:42;;;;;;;17.30;15.50;;;14.90;99.90;;;;;;5106010;28;20952;-60
2023/08/31 07:04:10;;;;;;;17.03;15.33;;;14.90;99.90;;;;;;5098671;28;20521;-62
2023/08/31 07:06:37;;;;;;;19.30;15.90;;;14.90;99.90;;;;;;5100247;28;20506;-61
2023/08/31 07:09:05;;;;;;;16.77;15.03;;;14.80;99.90;;;;;;5097884;28;20438;-62
2023/08/31 07:11:32;;;;;;;18.30;15.23;;;14.70;99.90;;;;;;5102223;28;20478;-62
2023/08/31 07:13:59;;;;;;;17.87;14.90;;;14.70;99.90;;;;;;5098613;28;20495;-59
2023/08/31 07:16:26;;;;;;;16.20;14.60;;;14.70;99.90;;;;;;5098710;28;20439;-62
2023/08/31 07:18:53;;;;;;;19.63;14.70;;;14.70;99.90;;;;;;5098953;28;20452;-61
2023/08/31 07:21:22;;;;;;;17.67;15.87;;;14.70;99.90;;;;;;5098494;28;20943;-60
2023/08/31 07:23:49;;;;;;;16.50;14.70;;;14.80;99.90;;;;;;5098035;28;20446;-62
2023/08/31 07:26:16;;;;;;;16.50;14.97;;;14.90;99.90;;;;;;5098004;28;20438;-61
2023/08/31 07:28:43;;;;;;;15.20;13.60;;;15.10;99.90;;;;;;5099057;28;20445;-62
2023/08/31 07:31:11;;;;;;;14.57;13.10;;;15.30;99.90;;;;;;5098623;28;20494;-61
2023/08/31 07:33:38;;;;;;;15.83;14.23;;;15.50;99.90;;;;;;5099956;28;20442;-61
2023/08/31 07:36:06;;;;;;;12.73;11.63;;;15.70;99.90;;;;;;5099189;28;20438;-62
2023/08/31 07:38:34;;;;;;;13.17;11.80;;;15.80;99.90;;;;;;5099857;28;21035;-61
2023/08/31 07:41:01;;;;;;;12.70;11.57;;;15.80;99.90;;;;;;5099443;28;20438;-62
2023/08/31 07:43:28;;;;;;;12.67;11.40;;;15.70;99.90;;;;;;5099012;28;20446;-61
2023/08/31 07:45:55;;;;;;;14.03;11.70;;;15.60;99.90;;;;;;5097957;28;20458;-61
2023/08/31 07:48:21;;;;;;;11.40;10.40;;;15.50;99.90;;;;;;5098076;28;20448;-61
2023/08/31 07:50:49;;;;;;;13.27;11.90;;;15.50;99.90;;;;;;5094395;28;20434;-60
2023/08/31 07:53:17;;;;;;;12.43;11.33;;;15.50;99.90;;;;;;5094245;28;20443;-59
2023/08/31 07:55:51;;;;;;;13.23;11.83;;;15.60;99.90;;;;;;5095125;28;20529;-61
2023/08/31 07:58:18;;;;;;;10.30;9.40;;;15.70;99.90;;;;;;5095048;28;20900;-61
2023/08/31 08:00:45;;;;;;;12.40;9.10;;;15.80;99.90;;;;;;5094384;28;20848;-60
2023/08/31 08:03:12;;;;;;;10.00;9.10;;;15.90;99.90;;;;;;5094468;28;20459;-60
2023/08/31 08:05:40;;;;;;;10.90;9.80;;;16.10;99.90;;;;;;5094851;28;20464;-61
2023/08/31 08:08:07;;;;;;;11.37;10.37;;;16.10;99.90;;;;;;5093822;28;20940;-61
2023/08/31 08:10:34;;;;;;;10.47;9.27;;;16.10;99.90;;;;;;5094115;28;20454;-58
2023/08/31 08:13:03;;;;;;;10.37;9.30;;;16.20;99.90;;;;;;5093505;28;21023;-60
2023/08/31 08:15:30;;;;;;;9.00;8.17;;;16.10;99.90;;;;;;5093992;28;20495;-61
2023/08/31 08:17:57;;;;;;;9.57;8.67;;;16.20;99.90;;;;;;5093999;28;20821;-59
2023/08/31 08:20:24;;;;;;;10.17;9.27;;;16.30;99.90;;;;;;5094307;28;20483;-60
2023/08/31 08:22:52;;;;;;;8.33;7.37;;;16.50;99.90;;;;;;5093959;28;20457;-61
2023/08/31 08:25:19;;;;;;;8.77;7.87;;;16.70;99.90;;;;;;5094134;28;20442;-60
2023/08/31 08:27:46;;;;;;;8.77;7.87;;;17.10;99.90;;;;;;5094332;28;20434;-60
2023/08/31 08:30:15;;;;;;;14.00;8.80;;;17.30;99.90;;;;;;5094025;28;20442;-61
2023/08/31 08:32:42;;;;;;;8.33;7.53;;;17.40;99.90;;;;;;5094231;28;20478;-61
2023/08/31 08:35:09;;;;;;;8.63;7.73;;;17.40;99.90;;;;;;5094694;28;20445;-61
2023/08/31 08:37:36;;;;;;;8.07;7.37;;;17.40;99.90;;;;;;5094762;28;20445;-61
2023/08/31 08:40:03;;;;;;;8.80;7.43;;;17.30;99.90;;;;;;5097743;28;20450;-61
2023/08/31 08:42:32;;;;;;;7.20;6.23;;;17.20;99.90;;;;;;5094342;28;20454;-60
2023/08/31 08:44:59;;;;;;;8.10;7.40;;;17.20;99.80;;;;;;5093703;28;20951;-60
2023/08/31 08:47:28;;;;;;;8.33;6.57;;;17.10;99.20;;;;;;5093392;28;20484;-60
2023/08/31 08:49:55;;;;;;;6.53;5.93;;;17.20;99.10;;;;;;5094154;28;20440;-60
2023/08/31 08:52:23;;;;;;;7.73;6.90;;;17.40;98.60;;;;;;5097210;28;20500;-60
2023/08/31 08:54:50;;;;;;;7.63;6.83;;;17.50;98.20;;;;;;5095447;28;20927;-60
2023/08/31 08:57:17;;;;;;;7.23;6.57;;;17.50;97.30;;;;;;5095374;28;20437;-60
2023/08/31 08:59:44;;;;;;;18.77;5.90;;;17.50;96.00;;;;;;5097645;28;20446;-60
2023/08/31 09:02:12;;;;;;;8.17;6.97;;;17.50;96.00;;;;;;5098562;28;20462;-60
2023/08/31 09:04:40;;;;;;;6.87;6.20;;;17.60;95.70;;;;;;5103822;28;20438;-59
2023/08/31 09:07:07;;;;;;;7.57;6.87;;;17.60;95.40;;;;;;5105542;28;20541;-61
2023/08/31 09:09:48;;;;;;;10.47;6.60;;;17.50;94.80;;;;;;5099601;28;20451;-60
2023/08/31 09:12:15;;;;;;;6.30;5.70;;;17.40;94.90;;;;;;5098072;28;20490;-60
2023/08/31 09:14:42;;;;;;;7.50;6.70;;;17.30;95.20;;;;;;5100422;28;20896;-61
2023/08/31 09:17:08;;;;;;;7.60;7.00;;;17.20;95.30;;;;;;5099462;28;20442;-60
2023/08/31 09:19:36;;;;;;;7.07;6.47;;;17.30;95.00;;;;;;5099041;28;20441;-61
2023/08/31 09:22:04;;;;;;;7.97;6.93;;;17.30;94.90;;;;;;5100047;28;20465;-59
2023/08/31 09:24:41;;;;;;;7.37;5.70;;;17.40;94.70;;;;;;5098737;28;20450;-60
2023/08/31 09:27:08;;;;;;;7.30;6.70;;;17.60;94.60;;;;;;5098043;28;20437;-60
2023/08/31 09:29:39;;;;;;;7.70;5.43;;;17.70;94.20;;;;;;5098801;28;20448;-60
2023/08/31 09:32:06;;;;;;;9.10;5.87;;;17.80;93.70;;;;;;5098089;28;20482;-60
2023/08/31 09:34:37;;;;;;;6.60;5.93;;;17.90;93.50;;;;;;5096601;28;20510;-60
2023/08/31 09:37:09;;;;;;;6.87;5.83;;;17.80;93.00;;;;;;5096959;28;20446;-61
2023/08/31 09:39:40;;;;;;;6.67;5.90;;;17.80;93.50;;;;;;5097017;28;20438;-60
2023/08/31 09:42:07;;;;;;;6.17;5.60;;;17.90;93.20;;;;;;5097473;28;20838;-59
2023/08/31 09:44:34;;;;;;;7.47;6.37;;;18.10;92.60;;;;;;5096836;28;20513;-61
2023/08/31 09:47:03;;;;;;;7.03;6.10;;;18.10;92.10;;;;;;5096747;28;20451;-61
2023/08/31 09:49:30;;;;;;;7.70;6.07;;;18.10;91.90;;;;;;5096809;28;20474;-62
2023/08/31 09:52:01;;;;;;;6.40;5.80;;;18.10;91.20;;;;;;5099302;28;20485;-60
2023/08/31 09:54:30;;;;;;;7.23;6.10;;;18.10;90.80;;;;;;5099050;28;20429;-61
2023/08/31 09:57:00;;;;;;;6.63;6.03;;;18.10;90.60;;;;;;5097156;28;20438;-60
2023/08/31 09:59:28;;;;;;;6.43;5.77;;;18.20;90.10;;;;;;5100289;28;20445;-61
2023/08/31 10:01:56;;;;;;;9.60;6.77;;;18.10;88.80;;;;;;5097338;28;20456;-61
2023/08/31 10:04:23;;;;;;;6.40;5.80;;;18.10;88.10;;;;;;5097416;28;20442;-60
2023/08/31 10:06:51;;;;;;;8.20;6.37;;;18.20;88.50;;;;;;5097109;28;20445;-60
2023/08/31 10:09:18;;;;;;;6.63;5.63;;;18.30;87.70;;;;;;5097860;28;20457;-61
2023/08/31 10:11:47;;;;;;;6.43;5.90;;;18.50;87.00;;;;;;5099312;28;20478;-61
2023/08/31 10:14:14;;;;;;;8.30;5.57;;;18.50;85.40;;;;;;5097929;28;20447;-61
2023/08/31 10:16:44;;;;;;;7.63;5.67;;;18.50;84.80;;;;;;5099389;28;20525;-62
2023/08/31 10:19:11;;;;;;;6.40;5.27;;;18.50;83.70;;;;;;5098658;28;20441;-59
2023/08/31 10:21:39;;;;;;;7.27;5.27;;;18.50;82.60;;;;;;5100184;28;20552;-60
2023/08/31 10:24:06;;;;;;;5.87;4.47;;;18.60;82.20;;;;;;5097204;28;20951;-61
2023/08/31 10:26:33;;;;;;;7.50;4.97;;;18.60;81.80;;;;;;5096370;28;20452;-61
2023/08/31 10:29:02;;;;;;;5.70;5.20;;;18.60;79.20;;;;;;5096772;28;20806;-60
2023/08/31 10:31:30;;;;;;;6.37;5.80;;;18.40;78.80;;;;;;5097622;28;20473;-61
2023/08/31 10:33:58;;;;;;;6.40;5.80;;;18.10;79.40;;;;;;5097681;28;20485;-60
2023/08/31 10:36:37;;;;;;;5.80;5.20;;;17.80;80.50;;;;;;5096241;28;20445;-60
2023/08/31 10:39:12;;;;;;;5.70;5.23;;;17.60;82.10;;;;;;5096590;28;20434;-61
2023/08/31 10:41:39;;;;;;;6.30;5.70;;;17.50;82.60;;;;;;5096631;28;20466;-59
2023/08/31 10:44:20;;;;;;;6.53;5.80;;;17.30;82.70;;;;;;5096015;28;20446;-61
2023/08/31 10:46:48;;;;;;;6.93;6.30;;;17.10;83.80;;;;;;5101043;28;20426;-61
2023/08/31 10:49:17;;;;;;;6.37;5.77;;;17.00;85.10;;;;;;5104963;28;20470;-60
2023/08/31 10:51:45;;;;;;;6.80;6.20;;;16.90;86.30;;;;;;5099477;28;20504;-61
2023/08/31 10:54:14;;;;;;;5.83;5.23;;;17.00;87.20;;;;;;5099300;28;20916;-61
2023/08/31 10:57:05;;;;;;;6.23;5.67;;;17.20;87.00;;;;;;5098378;28;20453;-61
2023/08/31 10:59:51;;;;;;;6.60;5.07;;;17.50;85.50;;;;;;5098882;28;20430;-60
2023/08/31 11:02:32;;;;;;;5.90;5.37;;;17.70;84.30;;;;;;5096507;28;20450;-61
2023/08/31 11:05:06;;;;;;;6.17;4.50;;;18.00;83.10;;;;;;5095134;28;20442;-61
2023/08/31 11:07:34;;;;;;;6.70;5.07;;;18.30;81.20;;;;;;5095769;28;20488;-61
2023/08/31 11:10:16;;;;;;;5.90;5.23;;;18.50;79.30;;;;;;5095944;28;20450;-61
2023/08/31 11:12:45;;;;;;;5.63;4.70;;;18.60;79.10;;;;;;5096581;28;20999;-59
2023/08/31 11:15:17;;;;;;;4.70;4.30;;;18.70;78.60;;;;;;5095615;28;20928;-60
2023/08/31 11:17:46;;;;;;;6.73;4.00;;;18.80;77.30;;;;;;5096934;28;20932;-61
2023/08/31 11:20:16;;;;;;;4.90;3.87;;;18.80;74.70;;;;;;5109692;28;20442;-61
2023/08/31 11:22:44;;;;;;;5.40;4.30;;;18.60;74.20;;;;;;5108773;28;20458;-61
2023/08/31 11:25:13;;;;;;;4.90;4.50;;;18.40;73.30;;;;;;5097852;28;20446;-60
2023/08/31 11:27:41;;;;;;;4.63;4.23;;;18.10;73.60;;;;;;5095781;28;20447;-60
2023/08/31 11:30:13;;;;;;;6.87;4.33;;;18.00;74.00;;;;;;5096182;28;20961;-60
2023/08/31 11:32:47;;;;;;;5.07;4.07;;;18.00;74.20;;;;;;5096023;28;20482;-61
2023/08/31 11:35:16;;;;;;;4.80;4.30;;;18.10;74.10;;;;;;5095739;28;20423;-61
2023/08/31 11:37:44;;;;;;;7.37;4.67;;;18.20;73.40;;;;;;5096052;28;20472;-61
2023/08/31 11:40:11;;;;;;;4.70;4.30;;;18.30;73.10;;;;;;5095953;28;20446;-61
2023/08/31 11:42:38;;;;;;;5.07;4.67;;;18.30;72.20;;;;;;5096171;28;20460;-61
2023/08/31 11:45:06;;;;;;;4.67;4.27;;;18.30;72.10;;;;;;5096467;28;20908;-61
2023/08/31 11:47:34;;;;;;;4.60;3.90;;;18.20;72.60;;;;;;5095899;28;20434;-61
2023/08/31 11:50:04;;;;;;;4.53;3.83;;;18.10;72.40;;;;;;5095190;28;20442;-60
2023/08/31 11:52:31;;;;;;;5.73;4.23;;;18.10;72.60;;;;;;5095770;28;20498;-62
2023/08/31 11:54:58;;;;;;;5.10;3.53;;;18.10;71.90;;;;;;5095572;28;20434;-62
2023/08/31 11:57:28;;;;;;;3.93;3.60;;;18.30;71.20;;;;;;5095323;28;20442;-61
2023/08/31 11:59:56;;;;;;;4.60;3.07;;;18.50;69.90;;;;;;5095436;28;20442;-61
2023/08/31 12:02:23;;;;;;;3.07;2.77;;;19.00;67.90;;;;;;5095010;28;20999;-60
2023/08/31 12:04:49;;;;;;;3.03;2.73;;;19.40;66.00;;;;;;5095762;28;20439;-61
2023/08/31 12:07:19;;;;;;;3.63;3.33;;;19.80;64.70;;;;;;5096177;28;20449;-61
2023/08/31 12:09:46;;;;;;;3.30;3.00;;;20.00;63.90;;;;;;5095557;28;20442;-61
2023/08/31 12:12:15;;;;;;;3.20;2.90;;;20.00;63.40;;;;;;5095226;28;20462;-61
2023/08/31 12:14:44;;;;;;;4.87;2.83;;;20.10;63.10;;;;;;5095765;28;20911;-61
2023/08/31 12:17:10;;;;;;;2.97;2.63;;;20.20;62.60;;;;;;5095458;28;20438;-61
2023/08/31 12:19:39;;;;;;;3.77;3.17;;;20.40;62.10;;;;;;5095367;28;20442;-60
2023/08/31 12:22:07;;;;;;;4.10;2.60;;;20.50;61.40;;;;;;5094701;28;20979;-61
2023/08/31 12:24:40;;;;;;;4.03;3.00;;;20.50;60.90;;;;;;5095589;28;20434;-60
2023/08/31 12:27:07;;;;;;;3.13;2.33;;;20.50;60.50;;;;;;5095352;28;20903;-60
2023/08/31 12:29:34;;;;;;;2.50;2.30;;;20.20;59.90;;;;;;5094725;28;20430;-61
2023/08/31 12:32:00;;;;;;;2.90;1.80;;;19.90;60.50;;;;;;5095959;28;20923;-60
2023/08/31 12:34:27;;;;;;;2.70;2.00;;;19.60;61.10;;;;;;5099819;28;20496;-61
2023/08/31 12:36:54;;;;;;;1.80;1.57;;;19.50;61.20;;;;;;5099364;28;20948;-61
2023/08/31 12:39:21;;;;;;;3.20;1.50;;;19.60;60.40;;;;;;5101204;28;21005;-60
2023/08/31 12:41:49;;;;;;;2.30;2.10;;;19.70;60.10;;;;;;5101221;28;20544;-59